Time;durP1;ratioP1;P1;durP2;ratioP2;P2;SDS_P1;SDS_P2;PMS_P1;PMS_P2;Temp;Humidity;BMP_temperature;BMP_pressure;BME280_temperature;BME280_humidity;BME280_pressure;Samples;Min_cycle;Max_cycle;Signal;HPM_P1;HPM_P2
2022/11/21 00:00:49;;;;;;;15.48;6.95;;;;;;;10.03;44.54;101901.84;4942820;28;20059;-72
2022/11/21 00:03:28;;;;;;;12.07;5.97;;;;;;;9.97;43.54;101907.63;4932879;28;20136;-73
2022/11/21 00:05:57;;;;;;;12.00;6.20;;;;;;;9.91;44.09;101911.59;4950585;28;20055;-73
2022/11/21 00:08:26;;;;;;;9.40;5.13;;;;;;;9.82;44.19;101902.53;4954552;28;20051;-73
2022/11/21 00:10:54;;;;;;;10.02;5.78;;;;;;;9.73;45.78;101893.44;4946307;28;20079;-72
2022/11/21 00:13:27;;;;;;;13.57;6.03;;;;;;;9.63;46.88;101899.84;4945427;28;20047;-71
2022/11/21 00:15:55;;;;;;;16.10;5.93;;;;;;;9.52;46.58;101900.97;4948299;28;20123;-73
2022/11/21 00:18:24;;;;;;;12.60;6.57;;;;;;;9.45;47.99;101899.78;4951340;28;20493;-73
2022/11/21 00:20:53;;;;;;;11.60;5.93;;;;;;;9.39;48.26;101905.50;4945426;28;20707;-73
2022/11/21 00:23:21;;;;;;;13.00;5.78;;;;;;;9.33;47.38;101902.59;4936925;28;20048;-73
2022/11/21 00:25:50;;;;;;;10.77;5.53;;;;;;;9.25;47.51;101906.47;4940086;28;20062;-75
2022/11/21 00:28:18;;;;;;;12.60;5.70;;;;;;;9.17;47.70;101905.19;4949936;28;20122;-73
2022/11/21 00:30:49;;;;;;;14.43;6.32;;;;;;;9.09;47.65;101909.91;4948538;28;20043;-72
2022/11/21 00:33:17;;;;;;;15.30;9.23;;;;;;;8.98;47.91;101909.34;4944808;28;20053;-72
2022/11/21 00:35:46;;;;;;;17.50;8.13;;;;;;;8.92;48.13;101906.44;4943581;28;20062;-72
2022/11/21 00:38:15;;;;;;;22.40;8.20;;;;;;;8.85;48.55;101909.47;4944542;28;20055;-73
2022/11/21 00:40:44;;;;;;;28.38;11.07;;;;;;;8.77;48.91;101903.91;4942197;28;20113;-72
2022/11/21 00:43:13;;;;;;;32.70;10.95;;;;;;;8.69;49.51;101912.03;4943273;28;20128;-72
2022/11/21 00:45:42;;;;;;;41.63;14.70;;;;;;;8.59;48.97;101910.63;4948461;28;20048;-73
2022/11/21 00:48:12;;;;;;;40.53;13.80;;;;;;;8.51;48.77;101914.47;4941390;28;20063;-72
2022/11/21 00:50:41;;;;;;;30.52;13.38;;;;;;;8.43;49.50;101914.03;4943636;28;20054;-72
2022/11/21 00:53:09;;;;;;;23.90;11.52;;;;;;;8.38;49.72;101917.97;4941977;28;20058;-72
2022/11/21 00:55:38;;;;;;;17.75;10.13;;;;;;;8.27;49.59;101916.47;4949071;28;20048;-72
2022/11/21 00:58:07;;;;;;;23.00;10.45;;;;;;;8.16;50.04;101918.47;4949495;28;20047;-73
2022/11/21 01:00:35;;;;;;;12.65;6.97;;;;;;;8.07;50.41;101920.50;4940953;28;20716;-73
2022/11/21 01:03:07;;;;;;;12.93;6.65;;;;;;;7.99;50.84;101920.03;4942838;28;20062;-72
2022/11/21 01:05:37;;;;;;;20.27;7.57;;;;;;;7.90;51.72;101925.56;4940868;28;20604;-72
2022/11/21 01:08:06;;;;;;;18.45;6.78;;;;;;;7.84;52.54;101921.75;4941410;28;20138;-73
2022/11/21 01:10:37;;;;;;;22.33;8.65;;;;;;;7.75;53.51;101925.53;4944475;28;20506;-72
2022/11/21 01:13:05;;;;;;;16.23;8.07;;;;;;;7.67;54.02;101916.47;4942870;28;20079;-73
2022/11/21 01:15:35;;;;;;;23.85;9.07;;;;;;;7.62;54.44;101916.97;4942221;28;20051;-74
2022/11/21 01:18:03;;;;;;;19.90;7.63;;;;;;;7.53;53.60;101907.00;4946194;28;20067;-74
2022/11/21 01:20:32;;;;;;;14.95;6.80;;;;;;;7.51;53.82;101918.91;4950851;28;20043;-74
2022/11/21 01:23:05;;;;;;;13.13;6.03;;;;;;;7.43;53.40;101920.13;4959805;28;20073;-73
2022/11/21 01:25:34;;;;;;;;;;;;;;;7.37;53.78;101930.06;4940681;28;20050;-74
2022/11/21 01:28:03;;;;;;;16.65;6.85;;;;;;;7.30;53.01;101929.66;4948806;28;20373;-72
2022/11/21 01:30:31;;;;;;;14.75;6.53;;;;;;;7.23;53.86;101931.78;4943387;28;20055;-73
2022/11/21 01:33:00;;;;;;;16.90;7.85;;;;;;;7.16;53.97;101935.66;4938568;28;20055;-73
2022/11/21 01:35:29;;;;;;;18.90;8.27;;;;;;;7.10;54.50;101940.41;4946527;28;20660;-73
2022/11/21 01:38:00;;;;;;;21.55;6.93;;;;;;;7.05;54.66;101932.41;4941280;28;20067;-72
2022/11/21 01:40:30;;;;;;;17.73;8.05;;;;;;;7.03;54.40;101927.97;4937581;28;20043;-73
2022/11/21 01:43:03;;;;;;;19.45;11.30;;;;;;;6.93;54.66;101935.09;4948700;28;20069;-73
2022/11/21 01:45:55;;;;;;;20.17;8.82;;;;;;;6.90;54.76;101950.34;4945159;28;20052;-72
2022/11/21 01:48:31;;;;;;;19.00;7.80;;;;;;;6.85;55.39;101944.03;4943196;28;20799;-73
2022/11/21 01:51:03;;;;;;;14.85;8.23;;;;;;;6.81;56.65;101941.19;4944090;28;20055;-72
2022/11/21 01:53:31;;;;;;;;;;;;;;;6.76;56.94;101943.47;4938581;28;20054;-73
2022/11/21 01:56:03;;;;;;;17.00;7.35;;;;;;;6.68;58.01;101939.50;4944740;28;20411;-73
2022/11/21 01:58:37;;;;;;;14.45;6.72;;;;;;;6.64;57.62;101933.28;4943097;28;20053;-74
2022/11/21 02:01:06;;;;;;;13.57;6.22;;;;;;;6.60;58.00;101930.41;4947790;28;20130;-73
2022/11/21 02:03:38;;;;;;;26.92;11.48;;;;;;;6.58;58.02;101934.56;4942024;28;20057;-73
2022/11/21 02:06:10;;;;;;;23.88;10.65;;;;;;;6.53;58.23;101933.34;4944374;28;20051;-72
2022/11/21 02:08:43;;;;;;;20.65;8.00;;;;;;;6.49;58.37;101930.59;4946145;28;20129;-73
2022/11/21 02:11:21;;;;;;;19.80;8.65;;;;;;;6.47;59.03;101936.44;4935907;28;20059;-73
2022/11/21 02:13:50;;;;;;;27.13;9.95;;;;;;;6.42;59.22;101931.00;4941406;28;20047;-73
2022/11/21 02:16:18;;;;;;;27.63;10.68;;;;;;;6.35;59.31;101925.38;4944707;28;20146;-74
2022/11/21 02:18:47;;;;;;;24.80;12.25;;;;;;;6.40;59.79;101942.84;4946471;28;20742;-72
2022/11/21 02:21:30;;;;;;;27.25;12.95;;;;;;;6.40;58.93;101932.56;4940973;28;20071;-73
2022/11/21 02:24:05;;;;;;;24.58;11.07;;;;;;;6.38;60.69;101920.41;4935602;28;20047;-73
2022/11/21 02:26:36;;;;;;;23.27;11.20;;;;;;;6.32;61.33;101923.44;4942981;28;20051;-73
2022/11/21 02:29:05;;;;;;;28.50;13.38;;;;;;;6.25;60.73;101927.31;4939251;28;20064;-74
2022/11/21 02:31:33;;;;;;;26.30;11.43;;;;;;;6.29;60.57;101938.69;4953522;28;20054;-73
2022/11/21 02:34:05;;;;;;;27.63;12.32;;;;;;;6.30;60.09;101935.34;4943841;28;20047;-73
2022/11/21 02:36:42;;;;;;;22.08;10.57;;;;;;;6.29;60.49;101919.00;4938199;28;20051;-73
2022/11/21 02:39:16;;;;;;;25.45;11.45;;;;;;;6.29;61.81;101924.16;4943422;28;20047;-73
2022/11/21 02:41:53;;;;;;;29.52;13.77;;;;;;;6.29;61.33;101928.41;4943292;28;20077;-73
2022/11/21 02:44:26;;;;;;;30.10;12.35;;;;;;;6.26;61.06;101918.81;4948425;28;20051;-72
2022/11/21 02:46:57;;;;;;;24.10;11.18;;;;;;;6.17;60.86;101907.94;4947610;28;20055;-73
2022/11/21 02:49:36;;;;;;;24.30;12.40;;;;;;;6.23;61.33;101928.91;4945944;28;20142;-73
2022/11/21 02:52:05;;;;;;;23.88;11.43;;;;;;;6.21;61.08;101927.91;4949713;28;20548;-73
2022/11/21 02:54:38;;;;;;;21.98;10.95;;;;;;;6.22;61.30;101921.09;4947866;28;20060;-72
2022/11/21 02:57:08;;;;;;;24.55;10.00;;;;;;;6.20;60.88;101927.78;4938404;28;20051;-72
2022/11/21 02:59:37;;;;;;;21.77;10.13;;;;;;;6.10;60.72;101910.91;4947428;28;20051;-75
2022/11/21 03:02:06;;;;;;;25.20;10.95;;;;;;;6.13;62.40;101925.63;4948788;28;20078;-73
2022/11/21 03:04:34;;;;;;;24.98;11.20;;;;;;;6.07;64.19;101937.28;4942823;28;20051;-73
2022/11/21 03:07:05;;;;;;;24.85;10.30;;;;;;;6.04;64.13;101939.63;4938644;28;20048;-73
2022/11/21 03:09:33;;;;;;;17.77;9.85;;;;;;;6.01;64.65;101935.97;4942654;28;20130;-74
2022/11/21 03:12:09;;;;;;;34.15;10.95;;;;;;;5.98;66.66;101931.53;4936928;28;20043;-73
2022/11/21 03:14:44;;;;;;;22.48;10.57;;;;;;;5.99;66.90;101932.41;4951007;28;20039;-73
2022/11/21 03:17:13;;;;;;;18.77;9.32;;;;;;;5.98;65.74;101936.66;4947853;28;20059;-72
2022/11/21 03:19:41;;;;;;;21.90;9.82;;;;;;;5.97;65.31;101934.88;4947699;28;20051;-73
2022/11/21 03:22:10;;;;;;;20.02;8.75;;;;;;;5.97;65.03;101929.72;4948112;28;20138;-71
2022/11/21 03:24:39;;;;;;;19.88;9.00;;;;;;;5.99;64.25;101932.41;4944651;28;20058;-71
2022/11/21 03:27:09;;;;;;;21.95;9.00;;;;;;;5.99;65.28;101928.16;4947979;28;20047;-72
2022/11/21 03:29:38;;;;;;;21.63;8.85;;;;;;;5.99;64.43;101923.00;4948553;28;20047;-73
2022/11/21 03:32:07;;;;;;;18.20;8.10;;;;;;;5.94;65.36;101918.34;4949701;28;20046;-72
2022/11/21 03:34:36;;;;;;;18.50;8.00;;;;;;;5.85;65.87;101928.88;4965859;28;20061;-73
2022/11/21 03:37:07;;;;;;;20.88;7.55;;;;;;;5.79;64.80;101923.31;4955283;28;20054;-72
2022/11/21 03:39:42;;;;;;;14.30;7.15;;;;;;;5.78;64.13;101911.28;4945107;28;20057;-72
2022/11/21 03:42:13;;;;;;;15.35;7.18;;;;;;;5.79;64.42;101916.50;4948119;28;20051;-72
2022/11/21 03:44:41;;;;;;;17.42;7.15;;;;;;;5.81;65.15;101921.75;4943808;28;20058;-72
2022/11/21 03:47:10;;;;;;;19.40;8.57;;;;;;;5.84;64.34;101921.94;4948454;28;20065;-71
2022/11/21 03:49:39;;;;;;;20.20;8.45;;;;;;;5.86;63.87;101915.25;4948138;28;20061;-73
2022/11/21 03:52:07;;;;;;;18.92;8.68;;;;;;;5.85;64.67;101931.44;4953661;28;20058;-71
2022/11/21 03:54:36;;;;;;;20.30;8.43;;;;;;;5.84;66.16;101932.22;4948754;28;20084;-73
2022/11/21 03:57:05;;;;;;;14.43;8.30;;;;;;;5.86;66.07;101944.41;4951232;28;20059;-73
2022/11/21 03:59:37;;;;;;;14.85;8.18;;;;;;;5.88;66.26;101947.06;4948818;28;20085;-73
2022/11/21 04:02:05;;;;;;;;;;;;;;;5.89;66.08;101946.28;4949099;28;20057;-72
2022/11/21 04:04:34;;;;;;;15.57;8.07;;;;;;;5.88;67.88;101939.34;4942632;28;19930;-72
2022/11/21 04:07:03;;;;;;;16.67;8.45;;;;;;;5.89;67.55;101946.28;4946665;28;20051;-73
2022/11/21 04:09:34;;;;;;;22.77;9.93;;;;;;;5.89;65.63;101956.56;4953659;28;20545;-73
2022/11/21 04:12:04;;;;;;;19.55;8.40;;;;;;;5.91;64.91;101957.56;4944654;28;20580;-73
2022/11/21 04:14:35;;;;;;;24.95;10.55;;;;;;;5.93;64.48;101950.81;4945868;28;20706;-73
2022/11/21 04:17:04;;;;;;;18.30;8.70;;;;;;;5.90;66.39;101948.06;4937691;28;20059;-72
2022/11/21 04:19:32;;;;;;;20.92;8.52;;;;;;;5.95;65.86;101946.72;4945525;28;20051;-73
2022/11/21 04:22:01;;;;;;;17.08;8.77;;;;;;;5.97;64.52;101945.16;4949864;28;20051;-71
2022/11/21 04:24:30;;;;;;;18.60;8.20;;;;;;;5.95;65.70;101933.88;4949232;28;20072;-73
2022/11/21 04:26:59;;;;;;;26.70;9.82;;;;;;;5.93;65.70;101932.84;4956061;28;20086;-72
2022/11/21 04:29:27;;;;;;;18.27;8.57;;;;;;;5.94;65.16;101932.09;4946294;28;20142;-74
2022/11/21 04:31:59;;;;;;;19.20;8.52;;;;;;;5.95;65.02;101930.41;4948473;28;20557;-73
2022/11/21 04:34:28;;;;;;;16.08;8.15;;;;;;;5.94;64.47;101924.41;4950444;28;20058;-73
2022/11/21 04:36:57;;;;;;;23.17;9.90;;;;;;;5.98;64.00;101925.47;4940803;28;20127;-73
2022/11/21 04:39:26;;;;;;;17.58;8.38;;;;;;;6.00;64.01;101934.19;4947773;28;20078;-73
2022/11/21 04:41:54;;;;;;;16.30;7.97;;;;;;;6.01;63.87;101925.69;4946826;28;20146;-75
2022/11/21 04:44:23;;;;;;;13.60;8.55;;;;;;;6.03;63.21;101929.25;4944771;28;20626;-73
2022/11/21 04:46:55;;;;;;;17.65;9.15;;;;;;;6.03;62.15;101930.16;4948852;28;20395;-70
2022/11/21 04:49:25;;;;;;;11.50;7.88;;;;;;;6.04;60.00;101933.59;4938944;28;20114;-72
2022/11/21 04:51:54;;;;;;;22.15;10.32;;;;;;;6.04;60.47;101926.78;4940618;28;20059;-72
2022/11/21 04:54:23;;;;;;;13.48;7.43;;;;;;;6.01;59.76;101931.72;4939167;28;20043;-72
2022/11/21 04:56:59;;;;;;;12.20;7.00;;;;;;;6.02;58.54;101928.34;4949511;28;20114;-73
2022/11/21 04:59:28;;;;;;;13.52;6.57;;;;;;;6.02;57.73;101920.63;4944788;28;20612;-74
2022/11/21 05:01:57;;;;;;;15.30;7.30;;;;;;;6.00;58.65;101924.81;4942694;28;20516;-72
2022/11/21 05:04:27;;;;;;;18.02;8.80;;;;;;;5.99;58.88;101923.00;4949915;28;20051;-73
2022/11/21 05:06:58;;;;;;;20.65;8.00;;;;;;;5.97;58.94;101924.59;4952997;28;20051;-73
2022/11/21 05:09:27;;;;;;;23.23;8.95;;;;;;;5.93;58.72;101919.13;4952131;28;20134;-72
2022/11/21 05:14:41;;;;;;;13.93;7.53;;;;;;;5.90;59.38;101934.34;4949200;28;20062;-73
2022/11/21 05:17:10;;;;;;;16.15;7.05;;;;;;;5.87;59.03;101937.59;4950102;28;20071;-74
2022/11/21 05:19:40;;;;;;;12.77;6.47;;;;;;;5.87;59.05;101932.44;4951181;28;20055;-73
2022/11/21 05:22:09;;;;;;;12.60;7.30;;;;;;;5.84;59.31;101922.88;4950185;28;20057;-73
2022/11/21 05:24:43;;;;;;;11.05;6.72;;;;;;;5.84;59.41;101929.66;4948159;28;20106;-73
2022/11/21 05:27:12;;;;;;;15.23;6.93;;;;;;;5.84;60.00;101934.78;4943447;28;20616;-73
2022/11/21 05:29:40;;;;;;;18.17;7.07;;;;;;;5.83;60.45;101936.47;4947684;28;20501;-72
2022/11/21 05:32:09;;;;;;;17.65;7.85;;;;;;;5.82;60.43;101934.72;4949976;28;20043;-72
2022/11/21 05:34:42;;;;;;;15.65;7.85;;;;;;;5.83;60.78;101933.03;4946853;28;20437;-71
2022/11/21 05:37:11;;;;;;;15.18;7.07;;;;;;;5.83;60.80;101944.19;4943390;28;20505;-71
2022/11/21 05:39:40;;;;;;;15.07;7.00;;;;;;;5.83;60.96;101945.88;4949407;28;20073;-71
2022/11/21 05:42:08;;;;;;;16.45;6.97;;;;;;;5.82;61.12;101950.13;4951346;28;20054;-72
2022/11/21 05:44:36;;;;;;;12.43;6.97;;;;;;;5.82;61.04;101951.81;4943489;28;20401;-72
2022/11/21 05:47:04;;;;;;;14.27;7.00;;;;;;;5.82;61.27;101951.81;4945280;28;20517;-71
2022/11/21 05:49:33;;;;;;;17.15;7.22;;;;;;;5.83;61.50;101948.44;4947217;28;20039;-71
2022/11/21 05:52:04;;;;;;;15.93;7.60;;;;;;;5.82;61.82;101939.84;4949041;28;20438;-72
2022/11/21 05:54:32;;;;;;;14.20;6.85;;;;;;;5.84;61.55;101939.94;4948469;28;20509;-71
2022/11/21 05:57:03;;;;;;;13.40;5.97;;;;;;;5.85;62.38;101945.19;4944705;28;20306;-72
2022/11/21 05:59:32;;;;;;;14.60;6.57;;;;;;;5.84;62.54;101938.28;4947438;28;20563;-71
2022/11/21 06:04:48;;;;;;;11.45;4.97;;;;;;;5.84;61.53;101947.63;4949447;28;20418;-70
2022/11/21 06:07:19;;;;;;;12.15;5.72;;;;;;;5.86;63.58;101948.63;4948875;28;20422;-70
2022/11/21 06:09:48;;;;;;;16.95;6.88;;;;;;;5.84;63.60;101953.69;4946936;28;20053;-71
2022/11/21 06:12:16;;;;;;;11.85;6.28;;;;;;;5.84;63.63;101952.78;4949428;28;20043;-72
2022/11/21 06:14:45;;;;;;;16.15;6.88;;;;;;;5.85;63.69;101954.56;4944546;28;20044;-72
2022/11/21 06:17:14;;;;;;;14.68;6.75;;;;;;;5.86;62.79;101951.19;4946508;28;20138;-71
2022/11/21 06:19:42;;;;;;;12.80;6.38;;;;;;;5.86;62.33;101952.13;4948995;28;20047;-71
2022/11/21 06:22:11;;;;;;;11.63;6.80;;;;;;;5.86;62.01;101962.38;4948338;28;20047;-71
2022/11/21 06:24:43;;;;;;;14.40;6.45;;;;;;;5.82;62.25;101947.56;4948347;28;20622;-72
2022/11/21 06:27:12;;;;;;;15.20;5.85;;;;;;;5.84;61.90;101952.78;4947935;28;20474;-72
2022/11/21 06:29:40;;;;;;;16.42;6.30;;;;;;;5.83;62.35;101945.88;4956706;28;20449;-71
2022/11/21 06:32:09;;;;;;;16.27;6.85;;;;;;;5.82;62.58;101952.69;4950858;28;20051;-71
2022/11/21 06:34:38;;;;;;;18.75;7.95;;;;;;;5.79;62.54;101955.03;4947695;28;20750;-73
2022/11/21 06:37:07;;;;;;;19.38;6.60;;;;;;;5.76;62.08;101954.84;4948982;28;20047;-70
2022/11/21 06:39:35;;;;;;;15.90;7.22;;;;;;;5.74;61.76;101950.38;4953181;28;20059;-72
2022/11/21 06:42:06;;;;;;;16.33;6.38;;;;;;;5.73;62.59;101953.75;4947126;28;20050;-71
2022/11/21 06:44:35;;;;;;;15.52;6.60;;;;;;;5.71;62.50;101947.63;4946750;28;20055;-72
2022/11/21 06:47:03;;;;;;;15.98;6.20;;;;;;;5.67;62.88;101942.25;4942761;28;20047;-73
2022/11/21 06:49:32;;;;;;;12.85;6.75;;;;;;;5.65;62.89;101954.09;4951825;28;20047;-71
2022/11/21 06:52:01;;;;;;;19.50;6.95;;;;;;;5.64;62.17;101957.47;4951075;28;20051;-72
2022/11/21 06:54:30;;;;;;;14.75;6.90;;;;;;;5.64;60.55;101962.59;4949922;28;20062;-72
2022/11/21 06:56:58;;;;;;;12.75;6.28;;;;;;;5.65;63.01;101956.66;4949485;28;20547;-73
2022/11/21 06:59:29;;;;;;;20.20;6.60;;;;;;;5.63;64.87;101963.34;4950091;28;20081;-73
2022/11/21 07:01:57;;;;;;;12.68;5.40;;;;;;;5.63;64.72;101963.34;4950292;28;20047;-73
2022/11/21 07:04:28;;;;;;;15.00;6.15;;;;;;;5.57;64.30;101952.69;4946904;28;21200;-73
2022/11/21 07:06:57;;;;;;;11.85;6.18;;;;;;;5.50;66.11;101950.50;4945617;28;20052;-74
2022/11/21 07:09:25;;;;;;;13.95;6.05;;;;;;;5.49;65.49;101953.81;4947205;28;20043;-73
2022/11/21 07:11:54;;;;;;;16.67;6.88;;;;;;;5.49;65.10;101956.38;4947271;28;20051;-73
2022/11/21 07:14:21;;;;;;;14.73;7.88;;;;;;;5.52;64.48;101966.91;4944293;28;20101;-72
2022/11/21 07:16:52;;;;;;;12.48;6.32;;;;;;;5.52;64.62;101974.59;4948014;28;20062;-73
2022/11/21 07:19:20;;;;;;;15.90;5.85;;;;;;;5.53;64.15;101980.63;4950671;28;20051;-73
2022/11/21 07:21:49;;;;;;;13.27;6.97;;;;;;;5.55;64.17;101979.06;4949404;28;20048;-73
2022/11/21 07:24:18;;;;;;;18.05;7.47;;;;;;;5.49;64.36;101969.22;4945192;28;20055;-72
2022/11/21 07:26:46;;;;;;;9.77;5.43;;;;;;;5.58;63.96;101980.13;4945800;28;20059;-71
2022/11/21 07:29:15;;;;;;;17.55;6.93;;;;;;;5.58;64.19;101980.13;4939601;28;20047;-73
2022/11/21 07:31:44;;;;;;;11.55;5.65;;;;;;;5.58;64.14;101975.00;4952847;28;20043;-72
2022/11/21 07:34:14;;;;;;;13.80;6.53;;;;;;;5.57;65.31;101970.66;4950113;28;20070;-73
2022/11/21 07:36:42;;;;;;;13.45;5.70;;;;;;;5.52;66.32;101968.53;4942598;28;20047;-72
2022/11/21 07:39:15;;;;;;;13.23;6.15;;;;;;;5.52;66.79;101978.81;4949011;28;20063;-72
2022/11/21 07:41:44;;;;;;;13.55;5.85;;;;;;;5.54;66.49;101980.69;4943750;28;20044;-73
2022/11/21 07:44:12;;;;;;;8.52;4.88;;;;;;;5.53;65.39;101966.09;4944515;28;20051;-72
2022/11/21 07:46:41;;;;;;;19.67;6.05;;;;;;;5.46;67.03;101963.88;4945400;28;20054;-73
2022/11/21 07:49:09;;;;;;;14.52;6.03;;;;;;;5.38;67.56;101957.31;4946180;28;20048;-71
2022/11/21 07:51:40;;;;;;;10.07;5.75;;;;;;;5.35;67.86;101960.56;4946268;28;20039;-73
2022/11/21 07:54:09;;;;;;;17.70;6.18;;;;;;;5.31;66.58;101961.13;4945871;28;20043;-73
2022/11/21 07:56:37;;;;;;;15.32;6.55;;;;;;;5.30;66.32;101958.47;4942603;28;20134;-72
2022/11/21 07:59:20;;;;;;;14.85;7.55;;;;;;;5.31;66.22;101957.69;4946029;28;20094;-72
2022/11/21 08:01:48;;;;;;;12.85;6.63;;;;;;;5.32;66.81;101956.91;4946346;28;20058;-72
2022/11/21 08:04:18;;;;;;;16.02;6.30;;;;;;;5.32;66.64;101959.47;4943287;28;20047;-73
2022/11/21 08:06:48;;;;;;;15.55;5.90;;;;;;;5.31;66.03;101957.69;4944794;28;20445;-72
2022/11/21 08:09:19;;;;;;;19.63;5.70;;;;;;;5.29;65.86;101962.72;4947557;28;20050;-72
2022/11/21 08:11:48;;;;;;;13.73;6.13;;;;;;;5.28;66.08;101960.03;4947576;28;20142;-73
2022/11/21 08:14:17;;;;;;;12.85;6.05;;;;;;;5.24;65.86;101952.16;4949715;28;20051;-72
2022/11/21 08:16:45;;;;;;;12.30;6.00;;;;;;;5.18;65.29;101946.56;4941924;28;20059;-71
2022/11/21 08:19:14;;;;;;;9.48;5.22;;;;;;;5.09;65.85;101956.19;4944316;28;20051;-71
2022/11/21 08:21:43;;;;;;;12.27;6.55;;;;;;;5.04;65.98;101970.38;4948084;28;20052;-73
2022/11/21 08:24:13;;;;;;;13.18;5.78;;;;;;;4.98;66.18;101972.47;4945784;28;20054;-72
2022/11/21 08:26:42;;;;;;;10.73;5.72;;;;;;;4.96;67.17;101979.19;4953356;28;20072;-71
2022/11/21 08:29:11;;;;;;;16.63;6.78;;;;;;;4.95;67.17;101982.53;4945837;28;20048;-71
2022/11/21 08:31:40;;;;;;;13.00;5.18;;;;;;;4.92;67.52;101992.56;4949011;28;20043;-73
2022/11/21 08:34:09;;;;;;;11.90;6.03;;;;;;;4.89;67.74;101979.53;4947202;28;20044;-72
2022/11/21 08:36:38;;;;;;;15.93;6.65;;;;;;;4.81;67.93;101984.06;4947925;28;20063;-72
2022/11/21 08:39:16;;;;;;;16.08;7.22;;;;;;;4.74;68.59;101993.03;4631410;28;9260440;-73
2022/11/21 08:44:30;;;;;;;13.15;6.05;;;;;;;4.69;69.65;101981.50;4955386;28;20058;-71
2022/11/21 08:46:59;;;;;;;13.02;6.68;;;;;;;4.68;69.22;101981.44;4946747;28;20051;-71
2022/11/21 08:49:30;;;;;;;10.43;6.00;;;;;;;4.66;70.09;101981.31;4949351;28;20055;-73
2022/11/21 08:51:59;;;;;;;12.38;5.13;;;;;;;4.61;69.66;101977.53;4950500;28;20150;-72
2022/11/21 08:54:29;;;;;;;16.73;6.32;;;;;;;4.57;70.29;101978.06;4948932;28;20051;-73
2022/11/21 08:56:58;;;;;;;16.10;5.25;;;;;;;4.51;70.27;101969.91;4951327;28;20058;-72
2022/11/21 08:59:26;;;;;;;11.60;6.07;;;;;;;4.43;70.59;101959.13;4947025;28;20059;-72
2022/11/21 09:01:57;;;;;;;12.00;6.18;;;;;;;4.38;70.82;101961.34;4949518;28;20047;-72
2022/11/21 09:04:26;;;;;;;12.77;6.15;;;;;;;4.36;71.26;101956.88;4955537;28;20062;-73
2022/11/21 09:06:55;;;;;;;12.60;6.20;;;;;;;4.35;70.09;101960.22;4946866;28;20057;-73
2022/11/21 09:09:23;;;;;;;12.75;6.15;;;;;;;4.29;70.72;101958.09;4949504;28;20515;-73
2022/11/21 09:11:54;;;;;;;14.27;6.63;;;;;;;4.26;70.66;101960.44;4952092;28;20055;-73
2022/11/21 09:20:00;;;;;;;14.00;5.55;;;;;;;4.15;70.37;101940.81;4948259;28;20066;-72
2022/11/21 09:22:28;;;;;;;14.57;6.78;;;;;;;4.14;70.86;101936.47;4943320;28;20387;-71
2022/11/21 09:24:59;;;;;;;8.70;5.20;;;;;;;4.09;71.42;101942.91;4951667;28;20055;-73
2022/11/21 09:27:31;;;;;;;12.25;5.95;;;;;;;4.01;70.84;101937.25;4954066;28;20047;-73
2022/11/21 09:29:59;;;;;;;17.40;6.78;;;;;;;4.01;71.79;101950.03;4947880;28;20055;-72
2022/11/21 09:32:30;;;;;;;12.43;6.05;;;;;;;4.00;70.76;101955.94;4949475;28;20044;-73
2022/11/21 09:34:59;;;;;;;15.85;6.63;;;;;;;3.99;71.67;101952.47;4947421;28;20055;-73
2022/11/21 09:37:27;;;;;;;12.23;5.95;;;;;;;4.01;71.64;101962.84;4949081;28;20047;-70
2022/11/21 09:40:02;;;;;;;13.77;6.88;;;;;;;3.99;71.19;101952.47;4950326;28;20058;-74
2022/11/21 09:42:54;;;;;;;10.38;5.72;;;;;;;3.96;72.40;101949.69;4948120;28;20083;-72
2022/11/21 09:45:33;;;;;;;9.60;5.35;;;;;;;3.93;72.86;101949.44;4945277;28;20047;-73
2022/11/21 09:48:04;;;;;;;12.80;6.18;;;;;;;3.92;73.05;101952.81;4946978;28;20663;-72
2022/11/21 09:50:36;;;;;;;17.52;7.05;;;;;;;3.90;72.33;101956.91;4945969;28;20417;-72
2022/11/21 09:53:08;;;;;;;14.00;6.28;;;;;;;3.90;72.41;101964.59;4941976;28;20047;-73
2022/11/21 09:55:45;;;;;;;14.80;6.90;;;;;;;3.88;72.90;101963.56;4951230;28;20038;-72
2022/11/21 09:58:28;;;;;;;16.52;6.25;;;;;;;3.84;72.48;101965.78;4948455;28;20077;-72
2022/11/21 10:01:04;;;;;;;11.13;6.25;;;;;;;3.71;73.92;101961.38;4946692;28;20524;-72
2022/11/21 10:03:39;;;;;;;13.20;4.95;;;;;;;3.63;75.32;101954.81;4947176;28;20051;-72
2022/11/21 10:06:18;;;;;;;9.90;4.90;;;;;;;3.62;75.56;101956.50;4949224;28;20060;-72
2022/11/21 10:08:56;;;;;;;8.48;5.43;;;;;;;3.66;76.61;101962.72;4950202;28;20055;-72
2022/11/21 10:12:35;;;;;;;17.63;7.15;;;;;;;3.68;76.10;101967.16;4948480;28;20099;-73
2022/11/21 10:14:44;;;;;;;18.40;6.22;;;;;;;3.70;75.89;101959.63;4947465;28;20129;-72
2022/11/21 10:17:23;;;;;;;12.15;6.57;;;;;;;3.70;75.50;101955.38;4948513;28;20050;-73
2022/11/21 10:20:10;;;;;;;13.80;5.90;;;;;;;3.71;74.53;101969.06;4954736;28;20043;-72
2022/11/21 10:22:54;;;;;;;18.25;7.80;;;;;;;3.70;74.69;101972.41;4952013;28;20059;-72
2022/11/21 10:25:26;;;;;;;10.05;6.45;;;;;;;3.71;74.83;101976.75;4950323;28;20971;-72
2022/11/21 10:27:58;;;;;;;10.07;5.10;;;;;;;3.70;75.50;101974.97;4950352;28;20054;-73
2022/11/21 10:30:31;;;;;;;11.20;4.68;;;;;;;3.70;74.94;101964.75;4947568;28;20054;-72
2022/11/21 10:33:04;;;;;;;14.27;5.32;;;;;;;3.70;74.69;101969.88;4949032;28;20489;-73
2022/11/21 10:35:40;;;;;;;12.45;5.47;;;;;;;3.71;74.49;101969.06;4947146;28;20047;-73
2022/11/21 10:38:22;;;;;;;10.65;5.88;;;;;;;3.69;74.48;101965.53;4938772;28;20106;-72
2022/11/21 10:40:55;;;;;;;16.15;5.68;;;;;;;3.68;76.28;101966.28;4907406;29;20623;-72
2022/11/21 10:46:26;;;;;;;12.88;6.55;;;;;;;3.61;77.46;101954.69;4911490;29;20063;-72
2022/11/21 10:48:59;;;;;;;17.40;5.15;;;;;;;3.64;76.79;101954.03;4907880;29;20546;-72
2022/11/21 10:51:41;;;;;;;9.00;4.60;;;;;;;3.64;76.05;101954.94;4915408;29;20493;-72
2022/11/21 10:57:00;;;;;;;9.45;5.03;;;;;;;3.68;76.60;101958.59;4909465;29;20699;-71
2022/11/21 10:59:31;;;;;;;14.18;6.00;;;;;;;3.69;76.15;101952.72;4907630;29;20067;-72
2022/11/21 11:02:04;;;;;;;9.48;4.57;;;;;;;3.71;76.51;101957.19;4909974;29;20059;-73
2022/11/21 11:04:33;;;;;;;8.10;4.60;;;;;;;3.72;75.72;101958.06;4906843;29;20047;-74
2022/11/21 11:07:22;;;;;;;10.98;4.75;;;;;;;3.74;75.74;101951.41;4907932;29;20052;-73
2022/11/21 11:09:51;;;;;;;18.75;5.22;;;;;;;3.73;75.81;101945.41;4904583;29;20056;-73
2022/11/21 11:15:28;;;;;;;10.00;4.75;;;;;;;3.74;76.67;101956.53;4909988;29;20541;-73
2022/11/21 11:18:00;;;;;;;11.35;4.80;;;;;;;3.74;75.62;101956.53;4911238;29;20075;-72
2022/11/21 11:20:35;;;;;;;;;;;;;;;3.77;75.68;101954.19;4901404;29;20052;-72
2022/11/21 11:23:22;;;;;;;11.27;5.20;;;;;;;3.78;76.60;101940.63;4913159;29;19927;-73
2022/11/21 11:25:53;;;;;;;11.50;5.45;;;;;;;3.78;76.41;101943.19;4903769;29;20045;-71
2022/11/21 11:28:23;;;;;;;10.77;5.70;;;;;;;3.72;76.73;101947.84;4905232;29;20048;-73
2022/11/21 11:30:52;;;;;;;11.82;5.57;;;;;;;3.67;76.78;101944.03;4906313;29;20056;-72
2022/11/21 11:33:39;;;;;;;12.20;5.45;;;;;;;3.68;77.00;101945.81;4903852;29;20052;-72
2022/11/21 11:36:26;;;;;;;12.52;5.60;;;;;;;3.68;76.78;101954.38;4903846;29;20044;-72
2022/11/21 11:38:58;;;;;;;15.73;7.00;;;;;;;3.69;75.89;101953.63;4918481;28;20066;-72
2022/11/21 11:47:31;;;;;;;7.32;4.03;;;;;;;3.69;75.58;101953.63;4942209;28;20086;-71
2022/11/21 11:50:11;;;;;;;14.88;6.25;;;;;;;3.71;74.87;101963.94;4947285;28;20053;-72
2022/11/21 11:52:56;;;;;;;11.27;5.18;;;;;;;3.70;75.12;101964.75;4950345;28;20056;-71
2022/11/21 11:55:32;;;;;;;10.43;5.88;;;;;;;3.71;76.01;101969.06;4949289;28;20047;-72
2022/11/21 11:58:03;;;;;;;16.02;4.95;;;;;;;3.72;75.68;101970.88;4937039;28;20086;-73
2022/11/21 12:00:44;;;;;;;12.55;6.03;;;;;;;3.75;76.45;101965.97;4949412;28;20057;-71
2022/11/21 12:03:16;;;;;;;12.38;5.60;;;;;;;3.75;76.40;101971.09;4950801;28;20612;-72
2022/11/21 12:06:00;;;;;;;11.18;4.90;;;;;;;3.70;77.18;101957.06;4951635;28;20050;-72
2022/11/21 12:08:40;;;;;;;10.88;4.90;;;;;;;3.65;77.88;101950.72;4949530;28;20178;-71
2022/11/21 12:14:07;;;;;;;;;;;;;;;3.68;78.57;101938.13;4949858;28;20134;-72
2022/11/21 12:16:37;;;;;;;10.82;4.75;;;;;;;3.73;78.27;101935.16;4952501;28;19929;-73